< < Back
Terminal Aerodrome Forecast


Current Version              Previous Versions:   1  2  3  4  5  6  7  8  9  

Terminal Aerodrome Forecast

688
FTUS44 KMOB 010529
TAFMOB
TAF
KMOB 010529Z 0106/0206 20009KT P6SM FEW050 SCT250 WS010/24040KT
     FM010900 22003KT 4SM BR FEW005 SCT250
     FM011500 20010G15KT P6SM SCT040 BKN250=



Latest METAR

343
SAUS80 KWBC 012100 RRJ
MTRMOB
METAR KMOB 012056Z 22011KT 10SM FEW048 BKN200 26/15 A3005 RMK AO2 SLP173
T02560150 56016


USA.gov is the U.S. government's official web portal to all federal, state and local government web resources and services.